sensor_id;sensor_type;location;lat;lon;timestamp;pressure;altitude;pressure_sealevel;temperature;humidity
10510;BME280;5303;53.266;10.410;2023-09-30T00:00:37;102013.66;;;12.96;100.00
10510;BME280;5303;53.266;10.410;2023-09-30T00:03:02;102008.34;;;12.90;100.00
10510;BME280;5303;53.266;10.410;2023-09-30T00:05:28;102013.66;;;12.93;100.00
10510;BME280;5303;53.266;10.410;2023-09-30T00:07:53;102023.34;;;12.91;100.00
10510;BME280;5303;53.266;10.410;2023-09-30T00:10:19;102030.41;;;12.89;100.00
10510;BME280;5303;53.266;10.410;2023-09-30T00:12:44;102039.25;;;12.89;100.00
10510;BME280;5303;53.266;10.410;2023-09-30T00:15:10;102039.19;;;12.83;100.00
10510;BME280;5303;53.266;10.410;2023-09-30T00:17:36;102033.88;;;12.80;100.00
10510;BME280;5303;53.266;10.410;2023-09-30T00:20:01;102043.59;;;12.83;100.00
10510;BME280;5303;53.266;10.410;2023-09-30T00:22:29;102045.38;;;12.87;100.00
10510;BME280;5303;53.266;10.410;2023-09-30T00:24:54;102050.66;;;12.84;100.00
10510;BME280;5303;53.266;10.410;2023-09-30T00:27:20;102049.78;;;12.83;100.00
10510;BME280;5303;53.266;10.410;2023-09-30T00:29:45;102058.59;;;12.79;100.00
10510;BME280;5303;53.266;10.410;2023-09-30T00:32:10;102059.41;;;12.75;100.00
10510;BME280;5303;53.266;10.410;2023-09-30T00:34:35;102064.72;;;12.77;100.00
10510;BME280;5303;53.266;10.410;2023-09-30T00:37:01;102057.66;;;12.76;100.00
10510;BME280;5303;53.266;10.410;2023-09-30T00:39:27;102054.09;;;12.71;100.00
10510;BME280;5303;53.266;10.410;2023-09-30T00:41:58;102055.88;;;12.75;100.00
10510;BME280;5303;53.266;10.410;2023-09-30T00:44:27;102057.63;;;12.73;100.00
10510;BME280;5303;53.266;10.410;2023-09-30T00:46:53;102059.38;;;12.67;100.00
10510;BME280;5303;53.266;10.410;2023-09-30T00:49:20;102064.69;;;12.71;100.00
10510;BME280;5303;53.266;10.410;2023-09-30T00:51:46;102063.81;;;12.72;100.00
10510;BME280;5303;53.266;10.410;2023-09-30T00:54:12;102058.44;;;12.62;100.00
10510;BME280;5303;53.266;10.410;2023-09-30T00:56:44;102054.09;;;12.69;100.00
10510;BME280;5303;53.266;10.410;2023-09-30T00:59:10;102056.75;;;12.71;100.00
10510;BME280;5303;53.266;10.410;2023-09-30T01:01:36;102056.72;;;12.67;100.00
10510;BME280;5303;53.266;10.410;2023-09-30T01:04:02;102061.16;;;12.68;100.00
10510;BME280;5303;53.266;10.410;2023-09-30T01:06:27;102062.84;;;12.63;100.00
10510;BME280;5303;53.266;10.410;2023-09-30T01:08:52;102067.31;;;12.67;100.00
10510;BME280;5303;53.266;10.410;2023-09-30T01:11:18;102062.84;;;12.60;100.00
10510;BME280;5303;53.266;10.410;2023-09-30T01:13:44;102056.66;;;12.63;100.00
10510;BME280;5303;53.266;10.410;2023-09-30T01:16:10;102063.75;;;12.64;100.00
10510;BME280;5303;53.266;10.410;2023-09-30T01:18:36;102068.16;;;12.66;100.00
10510;BME280;5303;53.266;10.410;2023-09-30T01:21:03;102064.69;;;12.69;100.00
10510;BME280;5303;53.266;10.410;2023-09-30T01:23:33;102060.28;;;12.73;100.00
10510;BME280;5303;53.266;10.410;2023-09-30T01:26:07;102061.19;;;12.75;100.00
10510;BME280;5303;53.266;10.410;2023-09-30T01:28:34;102068.28;;;12.79;100.00
10510;BME280;5303;53.266;10.410;2023-09-30T01:31:00;102069.19;;;12.79;100.00
10510;BME280;5303;53.266;10.410;2023-09-30T01:33:25;102064.72;;;12.77;100.00
10510;BME280;5303;53.266;10.410;2023-09-30T01:35:51;102063.00;;;12.77;100.00
10510;BME280;5303;53.266;10.410;2023-09-30T01:38:16;102066.47;;;12.75;100.00
10510;BME280;5303;53.266;10.410;2023-09-30T01:40:41;102063.88;;;12.78;100.00
10510;BME280;5303;53.266;10.410;2023-09-30T01:43:10;102070.00;;;12.74;100.00
10510;BME280;5303;53.266;10.410;2023-09-30T01:45:39;102063.81;;;12.70;100.00
10510;BME280;5303;53.266;10.410;2023-09-30T01:48:04;102070.88;;;12.73;100.00
10510;BME280;5303;53.266;10.410;2023-09-30T01:50:30;102077.91;;;12.67;100.00
10510;BME280;5303;53.266;10.410;2023-09-30T01:52:55;102074.34;;;12.65;100.00
10510;BME280;5303;53.266;10.410;2023-09-30T01:55:20;102080.47;;;12.58;100.00
10510;BME280;5303;53.266;10.410;2023-09-30T01:57:45;102073.34;;;12.54;100.00
10510;BME280;5303;53.266;10.410;2023-09-30T02:00:11;102079.50;;;12.50;100.00
10510;BME280;5303;53.266;10.410;2023-09-30T02:02:37;102082.97;;;12.45;100.00
10510;BME280;5303;53.266;10.410;2023-09-30T02:05:03;102081.19;;;12.40;100.00
10510;BME280;5303;53.266;10.410;2023-09-30T02:07:30;102096.16;;;12.37;100.00
10510;BME280;5303;53.266;10.410;2023-09-30T02:09:55;102095.22;;;12.35;100.00
10510;BME280;5303;53.266;10.410;2023-09-30T02:12:21;102083.75;;;12.33;100.00
10510;BME280;5303;53.266;10.410;2023-09-30T02:14:46;102083.72;;;12.28;100.00
10510;BME280;5303;53.266;10.410;2023-09-30T02:17:12;102090.75;;;12.28;100.00
10510;BME280;5303;53.266;10.410;2023-09-30T02:19:38;102091.66;;;12.28;100.00
10510;BME280;5303;53.266;10.410;2023-09-30T02:22:06;102097.81;;;12.29;100.00
10510;BME280;5303;53.266;10.410;2023-09-30T02:24:31;102094.25;;;12.25;100.00
10510;BME280;5303;53.266;10.410;2023-09-30T02:26:56;102101.25;;;12.19;100.00
10510;BME280;5303;53.266;10.410;2023-09-30T02:29:22;102104.72;;;12.15;100.00
10510;BME280;5303;53.266;10.410;2023-09-30T02:31:47;102101.16;;;12.13;100.00
10510;BME280;5303;53.266;10.410;2023-09-30T02:34:12;102095.84;;;12.09;100.00
10510;BME280;5303;53.266;10.410;2023-09-30T02:36:38;102092.31;;;12.10;100.00
10510;BME280;5303;53.266;10.410;2023-09-30T02:39:04;102089.66;;;12.07;100.00
10510;BME280;5303;53.266;10.410;2023-09-30T02:41:29;102093.19;;;12.06;100.00
10510;BME280;5303;53.266;10.410;2023-09-30T02:43:55;102093.13;;;12.05;100.00
10510;BME280;5303;53.266;10.410;2023-09-30T02:46:20;102102.78;;;11.98;100.00
10510;BME280;5303;53.266;10.410;2023-09-30T02:48:45;102094.88;;;12.03;100.00
10510;BME280;5303;53.266;10.410;2023-09-30T02:51:11;102101.91;;;12.01;100.00
10510;BME280;5303;53.266;10.410;2023-09-30T02:53:37;102103.69;;;12.00;100.00
10510;BME280;5303;53.266;10.410;2023-09-30T02:56:02;102107.19;;;11.98;100.00
10510;BME280;5303;53.266;10.410;2023-09-30T02:58:29;102100.13;;;11.98;100.00
10510;BME280;5303;53.266;10.410;2023-09-30T03:00:55;102103.63;;;11.96;100.00
10510;BME280;5303;53.266;10.410;2023-09-30T03:03:20;102106.22;;;11.94;100.00
10510;BME280;5303;53.266;10.410;2023-09-30T03:05:46;102108.00;;;11.95;100.00
10510;BME280;5303;53.266;10.410;2023-09-30T03:08:12;102101.75;;;11.87;100.00
10510;BME280;5303;53.266;10.410;2023-09-30T03:10:37;102108.75;;;11.85;100.00
10510;BME280;5303;53.266;10.410;2023-09-30T03:13:06;102103.53;;;11.88;100.00
10510;BME280;5303;53.266;10.410;2023-09-30T03:15:32;102096.41;;;11.82;100.00
10510;BME280;5303;53.266;10.410;2023-09-30T03:17:58;102107.03;;;11.86;100.00
10510;BME280;5303;53.266;10.410;2023-09-30T03:20:25;102104.34;;;11.84;100.00
10510;BME280;5303;53.266;10.410;2023-09-30T03:22:51;102124.59;;;11.82;100.00
10510;BME280;5303;53.266;10.410;2023-09-30T03:25:18;102117.56;;;11.84;100.00
10510;BME280;5303;53.266;10.410;2023-09-30T03:27:44;102117.47;;;11.78;100.00
10510;BME280;5303;53.266;10.410;2023-09-30T03:30:12;102130.78;;;11.82;100.00
10510;BME280;5303;53.266;10.410;2023-09-30T03:32:38;102122.81;;;11.79;100.00
10510;BME280;5303;53.266;10.410;2023-09-30T03:35:04;102131.66;;;11.83;100.00
10510;BME280;5303;53.266;10.410;2023-09-30T03:37:31;102120.13;;;11.78;100.00
10510;BME280;5303;53.266;10.410;2023-09-30T03:39:57;102113.88;;;11.73;100.00
10510;BME280;5303;53.266;10.410;2023-09-30T03:42:22;102113.81;;;11.68;100.00
10510;BME280;5303;53.266;10.410;2023-09-30T03:44:48;102107.63;;;11.66;100.00
10510;BME280;5303;53.266;10.410;2023-09-30T03:47:16;102110.28;;;11.68;100.00
10510;BME280;5303;53.266;10.410;2023-09-30T03:49:42;102109.31;;;11.61;100.00
10510;BME280;5303;53.266;10.410;2023-09-30T03:52:08;102103.97;;;11.57;100.00
10510;BME280;5303;53.266;10.410;2023-09-30T03:54:34;102114.53;;;11.57;100.00
10510;BME280;5303;53.266;10.410;2023-09-30T03:57:00;102125.06;;;11.53;100.00
10510;BME280;5303;53.266;10.410;2023-09-30T03:59:25;102113.56;;;11.51;100.00
10510;BME280;5303;53.266;10.410;2023-09-30T04:01:51;102124.22;;;11.54;100.00
10510;BME280;5303;53.266;10.410;2023-09-30T04:04:18;102110.94;;;11.51;100.00
10510;BME280;5303;53.266;10.410;2023-09-30T04:06:44;102119.72;;;11.50;100.00
10510;BME280;5303;53.266;10.410;2023-09-30T04:09:09;102117.09;;;11.50;100.00
10510;BME280;5303;53.266;10.410;2023-09-30T04:11:36;102111.88;;;11.55;100.00
10510;BME280;5303;53.266;10.410;2023-09-30T04:14:01;102114.47;;;11.53;100.00
10510;BME280;5303;53.266;10.410;2023-09-30T04:16:27;102118.06;;;11.57;100.00
10510;BME280;5303;53.266;10.410;2023-09-30T04:18:54;102118.09;;;11.59;100.00
10510;BME280;5303;53.266;10.410;2023-09-30T04:21:20;102111.03;;;11.58;100.00
10510;BME280;5303;53.266;10.410;2023-09-30T04:23:45;102113.66;;;11.56;100.00
10510;BME280;5303;53.266;10.410;2023-09-30T04:26:11;102116.31;;;11.58;100.00
10510;BME280;5303;53.266;10.410;2023-09-30T04:28:36;102124.22;;;11.54;100.00
10510;BME280;5303;53.266;10.410;2023-09-30T04:31:02;102119.78;;;11.53;100.00
10510;BME280;5303;53.266;10.410;2023-09-30T04:33:28;102139.19;;;11.56;100.00
10510;BME280;5303;53.266;10.410;2023-09-30T04:35:53;102130.44;;;11.60;100.00
10510;BME280;5303;53.266;10.410;2023-09-30T04:38:19;102139.19;;;11.56;100.00
10510;BME280;5303;53.266;10.410;2023-09-30T04:40:44;102150.69;;;11.58;100.00
10510;BME280;5303;53.266;10.410;2023-09-30T04:43:13;102148.03;;;11.58;100.00
10510;BME280;5303;53.266;10.410;2023-09-30T04:45:39;102158.63;;;11.61;100.00
10510;BME280;5303;53.266;10.410;2023-09-30T04:48:05;102156.91;;;11.63;100.00
10510;BME280;5303;53.266;10.410;2023-09-30T04:50:30;102151.63;;;11.63;100.00
10510;BME280;5303;53.266;10.410;2023-09-30T04:52:56;102151.72;;;11.69;100.00
10510;BME280;5303;53.266;10.410;2023-09-30T04:55:22;102166.72;;;11.71;100.00
10510;BME280;5303;53.266;10.410;2023-09-30T04:57:48;102157.91;;;11.71;100.00
10510;BME280;5303;53.266;10.410;2023-09-30T05:00:15;102172.00;;;11.71;100.00
10510;BME280;5303;53.266;10.410;2023-09-30T05:02:43;102167.56;;;11.69;100.00
10510;BME280;5303;53.266;10.410;2023-09-30T05:05:10;102156.13;;;11.68;100.00
10510;BME280;5303;53.266;10.410;2023-09-30T05:07:36;102152.59;;;11.69;100.00
10510;BME280;5303;53.266;10.410;2023-09-30T05:10:01;102146.47;;;11.72;100.00
10510;BME280;5303;53.266;10.410;2023-09-30T05:12:30;102155.25;;;11.71;100.00
10510;BME280;5303;53.266;10.410;2023-09-30T05:14:55;102141.19;;;11.73;100.00
10510;BME280;5303;53.266;10.410;2023-09-30T05:17:20;102148.19;;;11.70;100.00
10510;BME280;5303;53.266;10.410;2023-09-30T05:19:45;102151.75;;;11.72;100.00
10510;BME280;5303;53.266;10.410;2023-09-30T05:22:11;102147.31;;;11.71;100.00
10510;BME280;5303;53.266;10.410;2023-09-30T05:24:37;102150.00;;;11.74;100.00
10510;BME280;5303;53.266;10.410;2023-09-30T05:27:02;102159.69;;;11.72;100.00
10510;BME280;5303;53.266;10.410;2023-09-30T05:29:29;102159.72;;;11.75;100.00
10510;BME280;5303;53.266;10.410;2023-09-30T05:31:54;102164.09;;;11.73;100.00
10510;BME280;5303;53.266;10.410;2023-09-30T05:34:19;102165.84;;;11.71;100.00
10510;BME280;5303;53.266;10.410;2023-09-30T05:36:44;102164.06;;;11.70;100.00
10510;BME280;5303;53.266;10.410;2023-09-30T05:39:10;102176.41;;;11.71;100.00
10510;BME280;5303;53.266;10.410;2023-09-30T05:41:36;102172.91;;;11.72;100.00
10510;BME280;5303;53.266;10.410;2023-09-30T05:44:02;102170.25;;;11.72;100.00
10510;BME280;5303;53.266;10.410;2023-09-30T05:46:28;102181.69;;;11.71;100.00
10510;BME280;5303;53.266;10.410;2023-09-30T05:48:55;102179.94;;;11.71;100.00
10510;BME280;5303;53.266;10.410;2023-09-30T05:51:21;102183.50;;;11.75;100.00
10510;BME280;5303;53.266;10.410;2023-09-30T05:53:46;102172.19;;;11.82;100.00
10510;BME280;5303;53.266;10.410;2023-09-30T05:56:13;102188.03;;;11.80;100.00
10510;BME280;5303;53.266;10.410;2023-09-30T05:58:41;102180.16;;;11.85;100.00
10510;BME280;5303;53.266;10.410;2023-09-30T06:01:10;102192.53;;;11.86;100.00
10510;BME280;5303;53.266;10.410;2023-09-30T06:03:36;102183.75;;;11.90;100.00
10510;BME280;5303;53.266;10.410;2023-09-30T06:06:10;102182.06;;;11.95;100.00
10510;BME280;5303;53.266;10.410;2023-09-30T06:08:37;102190.91;;;11.97;100.00
10510;BME280;5303;53.266;10.410;2023-09-30T06:11:02;102192.72;;;12.00;100.00
10510;BME280;5303;53.266;10.410;2023-09-30T06:13:28;102200.66;;;12.01;100.00
10510;BME280;5303;53.266;10.410;2023-09-30T06:15:56;102203.34;;;12.04;100.00
10510;BME280;5303;53.266;10.410;2023-09-30T06:18:22;102216.66;;;12.12;100.00
10510;BME280;5303;53.266;10.410;2023-09-30T06:20:47;102214.03;;;12.14;100.00
10510;BME280;5303;53.266;10.410;2023-09-30T06:23:14;102215.81;;;12.15;100.00
10510;BME280;5303;53.266;10.410;2023-09-30T06:25:39;102221.16;;;12.18;100.00
10510;BME280;5303;53.266;10.410;2023-09-30T06:28:05;102222.94;;;12.19;100.00
10510;BME280;5303;53.266;10.410;2023-09-30T06:30:32;102222.94;;;12.19;100.00
10510;BME280;5303;53.266;10.410;2023-09-30T06:32:59;102222.09;;;12.21;100.00
10510;BME280;5303;53.266;10.410;2023-09-30T06:35:26;102230.00;;;12.20;100.00
10510;BME280;5303;53.266;10.410;2023-09-30T06:37:51;102230.91;;;12.23;100.00
10510;BME280;5303;53.266;10.410;2023-09-30T06:40:16;102228.25;;;12.22;100.00
10510;BME280;5303;53.266;10.410;2023-09-30T06:42:42;102223.00;;;12.25;100.00
10510;BME280;5303;53.266;10.410;2023-09-30T06:45:08;102229.16;;;12.24;100.00
10510;BME280;5303;53.266;10.410;2023-09-30T06:47:35;102224.88;;;12.35;100.00
10510;BME280;5303;53.266;10.410;2023-09-30T06:50:08;102226.63;;;12.33;100.00
10510;BME280;5303;53.266;10.410;2023-09-30T06:52:39;102236.31;;;12.31;100.00
10510;BME280;5303;53.266;10.410;2023-09-30T06:55:06;102241.63;;;12.32;100.00
10510;BME280;5303;53.266;10.410;2023-09-30T06:57:33;102247.91;;;12.40;100.00
10510;BME280;5303;53.266;10.410;2023-09-30T06:59:59;102245.28;;;12.42;100.00
10510;BME280;5303;53.266;10.410;2023-09-30T07:02:24;102236.47;;;12.45;100.00
10510;BME280;5303;53.266;10.410;2023-09-30T07:04:51;102246.25;;;12.47;100.00
10510;BME280;5303;53.266;10.410;2023-09-30T07:07:16;102250.66;;;12.48;100.00
10510;BME280;5303;53.266;10.410;2023-09-30T07:09:43;102248.06;;;12.56;100.00
10510;BME280;5303;53.266;10.410;2023-09-30T07:12:08;102253.50;;;12.66;100.00
10510;BME280;5303;53.266;10.410;2023-09-30T07:14:34;102251.72;;;12.65;100.00
10510;BME280;5303;53.266;10.410;2023-09-30T07:16:59;102256.19;;;12.69;100.00
10510;BME280;5303;53.266;10.410;2023-09-30T07:19:24;102257.22;;;12.81;100.00
10510;BME280;5303;53.266;10.410;2023-09-30T07:21:51;102256.41;;;12.89;100.00
10510;BME280;5303;53.266;10.410;2023-09-30T07:24:16;102257.34;;;12.96;100.00
10510;BME280;5303;53.266;10.410;2023-09-30T07:26:41;102260.06;;;12.99;100.00
10510;BME280;5303;53.266;10.410;2023-09-30T07:29:08;102266.28;;;13.04;100.00
10510;BME280;5303;53.266;10.410;2023-09-30T07:31:35;102269.03;;;13.16;100.00
10510;BME280;5303;53.266;10.410;2023-09-30T07:34:01;102259.41;;;13.20;100.00
10510;BME280;5303;53.266;10.410;2023-09-30T07:36:26;102262.06;;;13.23;100.00
10510;BME280;5303;53.266;10.410;2023-09-30T07:38:51;102258.63;;;13.30;100.00
10510;BME280;5303;53.266;10.410;2023-09-30T07:41:18;102264.81;;;13.34;100.00
10510;BME280;5303;53.266;10.410;2023-09-30T07:43:43;102261.31;;;13.38;100.00
10510;BME280;5303;53.266;10.410;2023-09-30T07:46:08;102262.19;;;13.37;100.00
10510;BME280;5303;53.266;10.410;2023-09-30T07:48:35;102261.38;;;13.44;100.00
10510;BME280;5303;53.266;10.410;2023-09-30T07:51:00;102263.19;;;13.49;100.00
10510;BME280;5303;53.266;10.410;2023-09-30T07:53:26;102258.88;;;13.62;100.00
10510;BME280;5303;53.266;10.410;2023-09-30T07:55:52;102257.13;;;13.66;100.00
10510;BME280;5303;53.266;10.410;2023-09-30T07:58:18;102258.00;;;13.65;100.00
10510;BME280;5303;53.266;10.410;2023-09-30T08:00:43;102249.28;;;13.79;100.00
10510;BME280;5303;53.266;10.410;2023-09-30T08:03:10;102255.47;;;13.83;100.00
10510;BME280;5303;53.266;10.410;2023-09-30T08:05:35;102250.19;;;13.86;100.00
10510;BME280;5303;53.266;10.410;2023-09-30T08:08:01;102261.72;;;13.91;100.00
10510;BME280;5303;53.266;10.410;2023-09-30T08:10:27;102252.00;;;13.95;100.00
10510;BME280;5303;53.266;10.410;2023-09-30T08:12:55;102254.72;;;14.07;100.00
10510;BME280;5303;53.266;10.410;2023-09-30T08:15:22;102260.91;;;14.04;100.00
10510;BME280;5303;53.266;10.410;2023-09-30T08:17:48;102261.81;;;14.02;100.00
10510;BME280;5303;53.266;10.410;2023-09-30T08:20:13;102262.75;;;14.15;100.00
10510;BME280;5303;53.266;10.410;2023-09-30T08:22:39;102257.44;;;14.18;100.00
10510;BME280;5303;53.266;10.410;2023-09-30T08:25:06;102266.34;;;14.21;100.00
10510;BME280;5303;53.266;10.410;2023-09-30T08:27:32;102266.34;;;14.24;100.00
10510;BME280;5303;53.266;10.410;2023-09-30T08:29:57;102271.69;;;14.32;100.00
10510;BME280;5303;53.266;10.410;2023-09-30T08:32:22;102272.59;;;14.35;100.00
10510;BME280;5303;53.266;10.410;2023-09-30T08:34:48;102282.44;;;14.53;100.00
10510;BME280;5303;53.266;10.410;2023-09-30T08:37:13;102293.94;;;14.54;100.00
10510;BME280;5303;53.266;10.410;2023-09-30T08:39:39;102283.31;;;14.57;100.00
10510;BME280;5303;53.266;10.410;2023-09-30T08:42:09;102278.09;;;14.75;100.00
10510;BME280;5303;53.266;10.410;2023-09-30T08:44:37;102271.88;;;14.75;100.00
10510;BME280;5303;53.266;10.410;2023-09-30T08:47:03;102269.28;;;14.84;100.00
10510;BME280;5303;53.266;10.410;2023-09-30T08:49:29;102272.81;;;14.86;100.00
10510;BME280;5303;53.266;10.410;2023-09-30T08:51:57;102276.38;;;14.92;100.00
10510;BME280;5303;53.266;10.410;2023-09-30T08:54:25;102273.69;;;14.88;100.00
10510;BME280;5303;53.266;10.410;2023-09-30T08:56:50;102275.50;;;15.12;100.00
10510;BME280;5303;53.266;10.410;2023-09-30T08:59:15;102269.31;;;15.19;100.00
10510;BME280;5303;53.266;10.410;2023-09-30T09:01:41;102270.22;;;15.32;100.00
10510;BME280;5303;53.266;10.410;2023-09-30T09:04:06;102272.00;;;15.26;100.00
10510;BME280;5303;53.266;10.410;2023-09-30T09:06:32;102280.00;;;15.33;100.00
10510;BME280;5303;53.266;10.410;2023-09-30T09:09:16;102283.53;;;15.39;100.00
10510;BME280;5303;53.266;10.410;2023-09-30T09:11:47;102278.19;;;15.51;100.00
10510;BME280;5303;53.266;10.410;2023-09-30T09:14:12;102275.56;;;15.54;100.00
10510;BME280;5303;53.266;10.410;2023-09-30T09:16:51;102271.13;;;15.56;100.00
10510;BME280;5303;53.266;10.410;2023-09-30T09:19:18;102272.91;;;15.67;100.00
10510;BME280;5303;53.266;10.410;2023-09-30T09:22:00;102280.91;;;15.74;100.00
10510;BME280;5303;53.266;10.410;2023-09-30T09:24:30;102272.91;;;15.85;100.00
10510;BME280;5303;53.266;10.410;2023-09-30T09:27:09;102283.53;;;15.82;100.00
10510;BME280;5303;53.266;10.410;2023-09-30T09:29:36;102282.63;;;15.83;100.00
10510;BME280;5303;53.266;10.410;2023-09-30T09:32:09;102287.09;;;15.75;100.00
10510;BME280;5303;53.266;10.410;2023-09-30T09:34:35;102295.97;;;15.80;100.00
10510;BME280;5303;53.266;10.410;2023-09-30T09:37:21;102287.06;;;15.90;100.00
10510;BME280;5303;53.266;10.410;2023-09-30T09:42:27;102288.84;;;15.88;100.00
10510;BME280;5303;53.266;10.410;2023-09-30T09:44:55;102288.84;;;16.06;100.00
10510;BME280;5303;53.266;10.410;2023-09-30T09:47:22;102281.72;;;16.16;100.00
10510;BME280;5303;53.266;10.410;2023-09-30T09:49:48;102287.03;;;16.13;100.00
10510;BME280;5303;53.266;10.410;2023-09-30T09:52:15;102287.94;;;16.10;100.00
10510;BME280;5303;53.266;10.410;2023-09-30T09:54:43;102284.41;;;16.07;100.00
10510;BME280;5303;53.266;10.410;2023-09-30T09:57:10;102276.38;;;16.25;100.00
10510;BME280;5303;53.266;10.410;2023-09-30T09:59:36;102279.88;;;16.38;100.00
10510;BME280;5303;53.266;10.410;2023-09-30T10:02:11;102269.22;;;16.30;100.00
10510;BME280;5303;53.266;10.410;2023-09-30T10:04:43;102281.56;;;16.51;100.00
10510;BME280;5303;53.266;10.410;2023-09-30T10:07:10;102270.88;;;16.62;100.00
10510;BME280;5303;53.266;10.410;2023-09-30T10:09:39;102285.09;;;16.68;100.00
10510;BME280;5303;53.266;10.410;2023-09-30T10:12:06;102274.41;;;16.72;100.00
10510;BME280;5303;53.266;10.410;2023-09-30T10:14:33;102277.94;;;16.74;100.00
10510;BME280;5303;53.266;10.410;2023-09-30T10:17:00;102269.97;;;16.67;100.00
10510;BME280;5303;53.266;10.410;2023-09-30T10:19:26;102266.47;;;16.58;100.00
10510;BME280;5303;53.266;10.410;2023-09-30T10:24:44;102274.38;;;16.81;100.00
10510;BME280;5303;53.266;10.410;2023-09-30T10:29:47;102270.78;;;16.88;100.00
10510;BME280;5303;53.266;10.410;2023-09-30T10:32:13;102277.81;;;16.95;100.00
10510;BME280;5303;53.266;10.410;2023-09-30T10:34:47;102268.94;;;16.99;100.00
10510;BME280;5303;53.266;10.410;2023-09-30T10:37:22;102281.34;;;17.03;100.00
10510;BME280;5303;53.266;10.410;2023-09-30T10:39:56;102286.59;;;17.15;100.00
10510;BME280;5303;53.266;10.410;2023-09-30T10:42:47;102286.66;;;17.09;100.00
10510;BME280;5303;53.266;10.410;2023-09-30T10:50:52;102288.28;;;17.28;100.00
10510;BME280;5303;53.266;10.410;2023-09-30T10:53:18;102298.97;;;17.28;100.00
10510;BME280;5303;53.266;10.410;2023-09-30T10:55:50;102297.19;;;17.29;100.00
10510;BME280;5303;53.266;10.410;2023-09-30T10:58:19;102288.22;;;17.39;100.00
10510;BME280;5303;53.266;10.410;2023-09-30T11:00:54;102285.56;;;17.38;100.00
10510;BME280;5303;53.266;10.410;2023-09-30T11:03:20;102279.31;;;17.36;100.00
10510;BME280;5303;53.266;10.410;2023-09-30T11:05:50;102270.50;;;17.31;100.00
10510;BME280;5303;53.266;10.410;2023-09-30T11:08:21;102276.75;;;17.23;100.00
10510;BME280;5303;53.266;10.410;2023-09-30T11:10:51;102280.22;;;17.35;100.00
10510;BME280;5303;53.266;10.410;2023-09-30T11:13:19;102273.16;;;17.31;100.00
10510;BME280;5303;53.266;10.410;2023-09-30T11:15:45;102271.31;;;17.39;100.00
10510;BME280;5303;53.266;10.410;2023-09-30T11:18:14;102266.88;;;17.38;100.00
10510;BME280;5303;53.266;10.410;2023-09-30T11:20:41;102265.88;;;17.51;100.00
10510;BME280;5303;53.266;10.410;2023-09-30T11:23:07;102278.25;;;17.61;100.00
10510;BME280;5303;53.266;10.410;2023-09-30T11:25:37;102276.56;;;17.49;100.00
10510;BME280;5303;53.266;10.410;2023-09-30T11:28:18;102268.50;;;17.55;100.00
10510;BME280;5303;53.266;10.410;2023-09-30T11:31:13;102273.00;;;17.50;100.00
10510;BME280;5303;53.266;10.410;2023-09-30T11:33:55;102261.41;;;17.53;100.00
10510;BME280;5303;53.266;10.410;2023-09-30T11:36:22;102266.75;;;17.53;100.00
10510;BME280;5303;53.266;10.410;2023-09-30T11:38:49;102260.56;;;17.49;100.00
10510;BME280;5303;53.266;10.410;2023-09-30T11:41:16;102266.72;;;17.56;100.00
10510;BME280;5303;53.266;10.410;2023-09-30T11:44:06;102251.50;;;17.64;100.00
10510;BME280;5303;53.266;10.410;2023-09-30T11:46:56;102255.09;;;17.69;100.00
10510;BME280;5303;53.266;10.410;2023-09-30T11:49:33;102261.25;;;17.74;100.00
10510;BME280;5303;53.266;10.410;2023-09-30T11:52:08;102261.28;;;17.71;100.00
10510;BME280;5303;53.266;10.410;2023-09-30T11:54:37;102257.75;;;17.69;100.00
10510;BME280;5303;53.266;10.410;2023-09-30T11:57:05;102253.28;;;17.65;100.00
10510;BME280;5303;53.266;10.410;2023-09-30T11:59:31;102263.09;;;17.69;100.00
10510;BME280;5303;53.266;10.410;2023-09-30T12:01:57;102262.16;;;17.67;100.00
10510;BME280;5303;53.266;10.410;2023-09-30T12:04:23;102248.81;;;17.69;100.00
10510;BME280;5303;53.266;10.410;2023-09-30T12:06:49;102252.38;;;17.72;100.00
10510;BME280;5303;53.266;10.410;2023-09-30T12:09:16;102254.16;;;17.67;100.00
10510;BME280;5303;53.266;10.410;2023-09-30T12:11:47;102247.06;;;17.69;100.00
10510;BME280;5303;53.266;10.410;2023-09-30T12:14:12;102249.69;;;17.74;100.00
10510;BME280;5303;53.266;10.410;2023-09-30T12:16:38;102243.31;;;17.90;100.00
10510;BME280;5303;53.266;10.410;2023-09-30T12:19:04;102246.81;;;17.94;100.00
10510;BME280;5303;53.266;10.410;2023-09-30T12:21:31;102258.34;;;17.96;100.00
10510;BME280;5303;53.266;10.410;2023-09-30T12:23:57;102247.59;;;18.03;100.00
10510;BME280;5303;53.266;10.410;2023-09-30T12:26:22;102244.94;;;18.02;100.00
10510;BME280;5303;53.266;10.410;2023-09-30T12:28:47;102240.44;;;18.05;100.00
10510;BME280;5303;53.266;10.410;2023-09-30T12:31:14;102239.50;;;18.11;100.00
10510;BME280;5303;53.266;10.410;2023-09-30T12:33:40;102245.84;;;18.02;100.00
10510;BME280;5303;53.266;10.410;2023-09-30T12:36:06;102242.31;;;17.97;100.00
10510;BME280;5303;53.266;10.410;2023-09-30T12:38:32;102245.03;;;17.93;100.00
10510;BME280;5303;53.266;10.410;2023-09-30T12:40:58;102249.47;;;17.94;100.00
10510;BME280;5303;53.266;10.410;2023-09-30T12:43:23;102248.66;;;17.85;100.00
10510;BME280;5303;53.266;10.410;2023-09-30T12:45:49;102244.16;;;17.92;100.00
10510;BME280;5303;53.266;10.410;2023-09-30T12:48:14;102252.13;;;17.95;100.00
10510;BME280;5303;53.266;10.410;2023-09-30T12:50:41;102249.53;;;17.88;100.00
10510;BME280;5303;53.266;10.410;2023-09-30T12:53:06;102248.69;;;17.84;100.00